Point Pleasant Beach, NJ (08742)

12:44 AM EDT on March 24, 2017 (GMT -0400)
Jersey Shore Wx Center | | Change Station

Elev 13 ft 40.09 °N, 74.05 °W | Updated 24 seconds ago

Clear
Clear
33.3 °F
Feels Like 33 °F
N
2.0
Wind Variable Wind from West
Gusts 3.0 mph

Today
High -- | Low -- °F
--% Chance of Precip.
Yesterday
High -- | Low -- °F
Precip. -- in
Pressure 30.57 in
Visibility 10.0 miles
Clouds Clear
Windchill 33 °F
Dew Point 20 °F
Humidity 58%
Rainfall 0.00 in
Snow Depth Not available.
6:52 AM 7:12 PM
Waning Crescent, 18% visible
METAR KBLM 240356Z AUTO 17004KT 10SM CLR 00/M08 A3055 RMK AO2 SLP350 T00001078 FZRANO
Pressure 30.57 in
Visibility 10.0 miles
Clouds Clear
Windchill 33 °F
Dew Point 20 °F
Humidity 58%
Rainfall 0.00 in
Snow Depth Not available.
6:52 AM 7:12 PM
Waning Crescent, 18% visible
METAR KBLM 240356Z AUTO 17004KT 10SM CLR 00/M08 A3055 RMK AO2 SLP350 T00001078 FZRANO

Get Severe Weather Alerts

Thanks for signing up!

Be on the lookout for a verification email in your inbox.

You'll start receiving the daily forecast at 8 AM.

×

10-Day Weather Forecast

Almanac

Astronomy

Mar. 24, 2017 Rise Set
Actual Time
Civil Twilight
Nautical Twilight
Astronomical Twilight
Moon
Length of Visible Light
Length of Day
Tomorrow will be .
, % of the Moon is Illuminated

Today's Extremes

State Highs State Lows

Community

WunderPhotos

Upload Photos

1,962,540 photos uploaded!

WunderBlog® & News

Nearby

Air Quality

  Air Quality AQ Index Pollutant
Not available.

Snow Depth

Station Depth Elevation

Earthquake Activity

City Distance Mag. Time & Date
Minimum magnitude displayed is 2.5.

Earthquake Activity

City Distance Mag. Time & Date
Minimum magnitude displayed is 2.5.

Coastal Water Temperatures

Place Temperature

Stations

Nearby Weather Stations

Station Location Temp. Windchill Dew Point Humidity Wind Precip. Elev Updated Type
                   

Watches & Warnings

There are currently no watches in effect.